Time;durP1;ratioP1;P1;durP2;ratioP2;P2;SDS_P1;SDS_P2;PMS_P1;PMS_P2;Temp;Humidity;BMP_temperature;BMP_pressure;BME280_temperature;BME280_humidity;BME280_pressure;Samples;Min_cycle;Max_cycle;Signal;HPM_P1;HPM_P2
2022/11/29 00:01:35;;;;;;;49.50;28.17;;;;;;;3.67;70.36;100489.69;4834466;28;98425;-91
2022/11/29 00:04:01;;;;;;;53.87;28.97;;;;;;;3.69;70.07;100494.84;4826400;29;101133;-90
2022/11/29 00:06:29;;;;;;;53.83;29.27;;;;;;;3.67;70.05;100489.69;4834726;28;97190;-90
2022/11/29 00:08:57;;;;;;;49.17;27.90;;;;;;;3.40;70.23;100454.25;4832569;29;96948;-90
2022/11/29 00:14:14;;;;;;;51.80;29.20;;;;;;;3.48;70.30;100469.81;4845618;28;101507;-92
2022/11/29 00:16:40;;;;;;;50.13;27.00;;;;;;;3.63;70.43;100488.78;4836699;28;97003;-92
2022/11/29 00:19:06;;;;;;;50.27;29.07;;;;;;;3.77;69.78;100493.97;4826363;28;97341;-93
2022/11/29 00:21:32;;;;;;;55.50;30.33;;;;;;;3.70;69.92;100496.59;4834640;29;101332;-91
2022/11/29 00:23:57;;;;;;;50.13;28.93;;;;;;;3.64;69.84;100494.88;4829068;28;101188;-91
2022/11/29 00:26:23;;;;;;;54.73;29.17;;;;;;;3.68;69.90;100491.38;4828072;28;97008;-91
2022/11/29 00:28:48;;;;;;;49.93;28.53;;;;;;;3.67;70.37;100491.41;4841849;28;97118;-90
2022/11/29 00:31:22;;;;;;;51.27;28.30;;;;;;;3.50;70.07;100453.38;4824028;29;101299;-90
2022/11/29 00:33:48;;;;;;;48.57;26.50;;;;;;;3.70;70.14;100484.47;4833691;28;100881;-90
2022/11/29 00:36:14;;;;;;;52.83;28.87;;;;;;;3.68;69.78;100465.44;4828622;28;97177;-92
2022/11/29 00:38:40;;;;;;;52.30;28.13;;;;;;;3.68;69.67;100477.56;4856091;28;96752;-90
2022/11/29 00:41:06;;;;;;;49.53;28.83;;;;;;;3.75;69.53;100493.13;4824469;28;99811;-92
2022/11/29 00:43:32;;;;;;;51.97;29.17;;;;;;;3.58;69.99;100472.41;4826138;28;100078;-90
2022/11/29 00:45:57;;;;;;;46.77;27.97;;;;;;;3.75;69.96;100492.22;4824838;29;96700;-90
2022/11/29 00:48:23;;;;;;;55.07;29.63;;;;;;;3.75;69.73;100487.94;4843469;28;97186;-92
2022/11/29 00:50:49;;;;;;;53.80;27.87;;;;;;;3.51;70.17;100475.00;4842985;28;101023;-91
2022/11/29 00:53:15;;;;;;;46.70;28.40;;;;;;;3.58;69.97;100482.78;4835516;28;97657;-91
2022/11/29 00:55:40;;;;;;;48.53;27.77;;;;;;;3.53;70.65;100479.31;4828725;28;97133;-91
2022/11/29 00:58:06;;;;;;;51.27;28.07;;;;;;;3.65;70.12;100490.53;4823453;28;96921;-92
2022/11/29 01:00:31;;;;;;;53.77;28.80;;;;;;;3.57;69.99;100478.44;4832715;28;101509;-91
2022/11/29 01:02:57;;;;;;;53.47;28.03;;;;;;;3.58;70.07;100475.00;4851097;28;100793;-90
2022/11/29 01:05:22;;;;;;;50.60;29.10;;;;;;;3.53;70.10;100476.72;4847058;28;97042;-91
2022/11/29 01:07:48;;;;;;;46.73;28.63;;;;;;;3.62;70.30;100487.09;4861625;28;96991;-91
2022/11/29 01:10:13;;;;;;;47.03;28.77;;;;;;;3.59;69.82;100481.91;4858740;28;98582;-91
2022/11/29 01:12:39;;;;;;;49.70;27.67;;;;;;;3.42;69.93;100451.66;4843003;28;100086;-91
2022/11/29 01:15:06;;;;;;;45.87;27.47;;;;;;;3.45;69.95;100472.44;4867668;28;98020;-90
2022/11/29 01:17:36;;;;;;;46.07;27.20;;;;;;;3.37;70.12;100465.53;4863171;28;96782;-90
2022/11/29 01:20:04;;;;;;;47.73;28.70;;;;;;;3.56;70.03;100489.69;4842664;28;100871;-91
2022/11/29 01:22:29;;;;;;;51.07;27.50;;;;;;;3.59;69.85;100496.63;4859801;28;100973;-91
2022/11/29 01:24:55;;;;;;;49.87;27.17;;;;;;;3.54;69.79;100480.19;4847776;28;96844;-90
2022/11/29 01:27:20;;;;;;;44.47;26.33;;;;;;;3.67;69.36;100492.28;4860138;28;97210;-90
2022/11/29 01:29:46;;;;;;;46.73;26.87;;;;;;;3.68;69.30;100488.78;4851730;28;101754;-91
2022/11/29 01:32:11;;;;;;;51.23;28.00;;;;;;;3.68;69.59;100482.75;4848392;28;100738;-91
2022/11/29 01:34:38;;;;;;;53.10;27.63;;;;;;;3.65;69.56;100480.16;4867299;28;96946;-90
2022/11/29 01:37:03;;;;;;;49.33;27.57;;;;;;;3.64;69.79;100484.50;4859908;28;97575;-91
2022/11/29 01:39:29;;;;;;;42.57;25.10;;;;;;;3.64;69.26;100479.31;4843123;28;100933;-90
2022/11/29 01:41:55;;;;;;;47.63;26.67;;;;;;;3.68;69.44;100481.00;4837876;28;100771;-91
2022/11/29 01:44:20;;;;;;;49.10;27.20;;;;;;;3.70;69.58;100487.06;4853853;28;96730;-91
2022/11/29 01:46:47;;;;;;;49.30;27.80;;;;;;;3.67;69.40;100461.13;4866707;28;96823;-89
2022/11/29 01:49:21;;;;;;;42.87;25.20;;;;;;;3.67;69.57;100479.28;4846450;28;101220;-92
2022/11/29 01:52:06;;;;;;;43.53;25.13;;;;;;;3.61;69.77;100477.56;4878617;28;97929;-90
2022/11/29 01:54:38;;;;;;;44.80;26.03;;;;;;;3.67;69.59;100489.69;4860896;28;96673;-91
2022/11/29 01:57:05;;;;;;;46.90;25.45;;;;;;;3.68;69.57;100491.38;4848710;28;97399;-90
2022/11/29 01:59:31;;;;;;;43.13;25.13;;;;;;;3.69;69.49;100487.91;4849937;28;101654;-90
2022/11/29 02:02:03;;;;;;;42.47;24.27;;;;;;;3.69;68.55;100484.47;4848956;28;99695;-91
2022/11/29 02:04:32;;;;;;;45.22;26.45;;;;;;;3.63;69.18;100487.94;4864549;28;96879;-90
2022/11/29 02:06:58;;;;;;;47.03;26.03;;;;;;;3.51;69.82;100467.22;4879216;28;96945;-91
2022/11/29 02:09:23;;;;;;;42.00;24.43;;;;;;;3.56;70.10;100481.91;4847316;28;101469;-91
2022/11/29 02:12:33;;;;;;;43.97;24.80;;;;;;;3.55;69.72;100462.03;4848598;28;101285;-91
2022/11/29 02:15:26;;;;;;;42.40;23.37;;;;;;;3.55;70.08;100468.91;4785867;29;97842;-91
2022/11/29 02:18:07;;;;;;;50.53;27.20;;;;;;;3.69;69.81;100477.53;4789851;29;98012;-91
2022/11/29 02:21:06;;;;;;;43.20;25.07;;;;;;;3.65;69.25;100459.41;4850255;28;98069;-90
2022/11/29 02:23:48;;;;;;;45.13;26.23;;;;;;;3.83;69.16;100477.50;4862767;28;100164;-91
2022/11/29 02:26:35;;;;;;;44.15;24.73;;;;;;;3.73;69.48;100481.88;4842356;28;96942;-90
2022/11/29 02:29:58;;;;;;;42.90;24.67;;;;;;;3.68;69.43;100483.59;4852169;28;96984;-91
2022/11/29 02:32:45;;;;;;;44.40;24.40;;;;;;;3.74;69.36;100482.72;4770402;29;101401;-91
2022/11/29 02:35:49;;;;;;;43.07;25.37;;;;;;;3.81;69.14;100487.91;4771305;29;101045;-91
2022/11/29 02:38:34;;;;;;;42.23;23.87;;;;;;;3.76;69.35;100489.66;4783030;29;97360;-90
2022/11/29 02:41:20;;;;;;;44.63;24.73;;;;;;;3.68;69.19;100488.78;4800845;29;96913;-90
2022/11/29 02:44:21;;;;;;;43.30;24.27;;;;;;;3.67;69.32;100489.69;4802271;29;100363;-90
2022/11/29 02:47:02;;;;;;;37.77;23.27;;;;;;;3.66;69.44;100490.53;4756210;29;101219;-92
2022/11/29 02:49:55;;;;;;;42.87;23.93;;;;;;;3.74;69.15;100495.72;4815144;29;96750;-91
2022/11/29 02:52:38;;;;;;;42.10;23.13;;;;;;;3.62;69.64;100496.59;4780588;29;97435;-91
2022/11/29 02:55:10;;;;;;;43.30;24.53;;;;;;;3.67;69.69;100507.00;4791002;29;98961;-91
2022/11/29 02:57:49;;;;;;;35.83;22.77;;;;;;;3.69;69.84;100500.91;4797589;29;101642;-89
2022/11/29 03:00:16;;;;;;;39.83;23.90;;;;;;;3.55;69.29;100474.13;4800787;29;97321;-91
2022/11/29 03:03:22;;;;;;;44.23;24.73;;;;;;;3.58;70.18;100500.94;4811252;29;97520;-90
2022/11/29 03:05:58;;;;;;;37.30;22.67;;;;;;;3.43;69.33;100456.00;4801055;29;101128;-90
2022/11/29 03:08:32;;;;;;;38.30;23.60;;;;;;;3.72;69.68;100507.81;4804585;29;100293;-91
2022/11/29 03:11:05;;;;;;;40.33;24.00;;;;;;;3.59;69.83;100502.66;4807449;29;97332;-90
2022/11/29 03:13:56;;;;;;;35.37;21.57;;;;;;;3.64;69.76;100515.66;4788544;29;97319;-90
2022/11/29 03:16:44;;;;;;;40.03;24.60;;;;;;;3.64;70.00;100515.66;4792549;29;101142;-91
2022/11/29 03:19:18;;;;;;;40.43;24.33;;;;;;;3.47;70.02;100494.91;4812110;29;99870;-92
2022/11/29 03:22:02;;;;;;;41.60;24.50;;;;;;;3.59;69.97;100510.47;4791332;29;97589;-89
2022/11/29 03:24:46;;;;;;;43.17;25.87;;;;;;;3.61;69.97;100513.94;4813131;29;97258;-90
2022/11/29 03:27:16;;;;;;;44.37;26.93;;;;;;;3.67;69.80;100518.25;4799981;29;101239;-92
2022/11/29 03:29:54;;;;;;;42.57;26.90;;;;;;;3.52;70.16;100518.25;4820411;29;101256;-91
2022/11/29 03:32:26;;;;;;;42.23;25.00;;;;;;;3.57;69.94;100524.31;4807408;29;96757;-91
2022/11/29 03:35:11;;;;;;;42.67;24.35;;;;;;;3.47;70.61;100515.69;4807066;29;97191;-90
2022/11/29 03:37:42;;;;;;;43.07;24.13;;;;;;;3.28;70.55;100472.47;4842299;28;101581;-91
2022/11/29 03:40:19;;;;;;;38.88;23.67;;;;;;;3.58;70.41;100523.47;4861699;28;101678;-91
2022/11/29 03:42:50;;;;;;;41.13;24.87;;;;;;;3.40;70.56;100499.25;4861247;28;97264;-90
2022/11/29 03:45:50;;;;;;;41.60;24.70;;;;;;;3.56;70.66;100520.84;4836015;28;97233;-90
2022/11/29 03:48:56;;;;;;;43.37;23.93;;;;;;;3.52;70.62;100513.06;4812331;28;98805;-90
2022/11/29 03:51:59;;;;;;;42.10;22.43;;;;;;;3.58;70.62;100523.47;4788015;29;97977;-92
2022/11/29 03:54:27;;;;;;;39.50;22.63;;;;;;;3.46;70.56;100501.00;4778178;29;97350;-90
2022/11/29 03:56:53;;;;;;;43.60;23.13;;;;;;;3.60;70.77;100519.09;4782350;29;97172;-90
2022/11/29 03:59:30;;;;;;;41.53;23.07;;;;;;;3.52;70.99;100520.84;4758398;29;101377;-91
2022/11/29 04:02:22;;;;;;;41.90;23.07;;;;;;;3.48;71.03;100527.78;4767393;29;100264;-91
2022/11/29 04:05:17;;;;;;;37.23;21.73;;;;;;;3.45;71.42;100524.34;4767326;29;97267;-90
2022/11/29 04:07:48;;;;;;;42.80;22.97;;;;;;;3.50;70.83;100514.81;4788592;29;97480;-90
2022/11/29 04:10:32;;;;;;;35.63;23.13;;;;;;;3.61;71.05;100520.84;4772698;29;101019;-92
2022/11/29 04:13:17;;;;;;;36.90;21.60;;;;;;;3.44;71.25;100528.66;4779026;29;101403;-90
2022/11/29 04:16:20;;;;;;;37.87;22.13;;;;;;;3.43;71.30;100529.50;4784484;29;97198;-91
2022/11/29 04:19:02;;;;;;;38.17;21.20;;;;;;;3.38;71.21;100501.00;4795988;29;97029;-91
2022/11/29 04:21:46;;;;;;;35.43;22.00;;;;;;;3.34;71.25;100508.78;4796329;29;97102;-90
2022/11/29 04:24:12;;;;;;;38.77;23.27;;;;;;;3.23;71.55;100516.59;4836126;28;101206;-91
2022/11/29 04:27:19;;;;;;;35.13;20.60;;;;;;;3.38;71.51;100534.72;4842942;28;97537;-90
2022/11/29 04:30:04;;;;;;;35.83;22.23;;;;;;;3.45;71.75;100540.75;4822428;28;96924;-90
2022/11/29 04:32:33;;;;;;;33.83;20.47;;;;;;;3.26;71.62;100524.38;4841625;28;101626;-90
2022/11/29 04:35:09;;;;;;;34.17;20.77;;;;;;;3.38;71.48;100533.88;4846091;28;101488;-91
2022/11/29 04:37:53;;;;;;;36.00;20.53;;;;;;;3.51;71.29;100545.94;4849190;28;97092;-91
2022/11/29 04:40:49;;;;;;;35.70;20.73;;;;;;;3.48;70.83;100535.56;4848935;28;96843;-91
2022/11/29 04:43:58;;;;;;;37.87;21.47;;;;;;;3.57;71.40;100550.25;4840959;28;101413;-92
2022/11/29 04:46:48;;;;;;;32.67;20.53;;;;;;;3.59;70.99;100553.72;4858944;28;97930;-90
2022/11/29 04:49:29;;;;;;;34.97;20.47;;;;;;;3.58;71.08;100552.00;4825724;29;97032;-91
2022/11/29 04:52:09;;;;;;;36.47;20.50;;;;;;;3.75;70.67;100558.03;4845585;28;97282;-90
2022/11/29 04:55:00;;;;;;;35.73;20.20;;;;;;;3.60;70.75;100551.13;4841261;28;100242;-90
2022/11/29 04:57:40;;;;;;;35.27;21.33;;;;;;;3.63;70.88;100560.63;4851961;29;100365;-90
2022/11/29 05:00:09;;;;;;;34.63;19.70;;;;;;;3.38;71.00;100521.75;4853180;28;97124;-90
2022/11/29 05:02:54;;;;;;;32.10;18.50;;;;;;;3.62;70.83;100564.09;4855009;28;97235;-88
2022/11/29 05:05:29;;;;;;;33.93;20.70;;;;;;;3.57;70.72;100538.13;4864379;28;98521;-90
2022/11/29 05:08:32;;;;;;;34.87;20.83;;;;;;;3.75;70.67;100557.16;4877896;28;97356;-90
2022/11/29 05:11:26;;;;;;;32.23;20.00;;;;;;;3.59;70.89;100564.97;4852615;28;97024;-91
2022/11/29 05:14:14;;;;;;;33.23;19.43;;;;;;;3.56;71.17;100562.38;4855937;28;97384;-91
2022/11/29 05:17:04;;;;;;;32.50;19.40;;;;;;;3.53;71.43;100558.94;4858536;28;100358;-91
2022/11/29 05:19:52;;;;;;;31.93;19.53;;;;;;;3.39;71.63;100571.91;4859468;28;99350;-90
2022/11/29 05:22:25;;;;;;;30.50;18.30;;;;;;;3.38;71.67;100565.00;4858803;28;97362;-91
2022/11/29 05:25:12;;;;;;;29.70;19.20;;;;;;;3.43;71.79;100573.63;4851576;28;97304;-91
2022/11/29 05:27:46;;;;;;;29.53;18.13;;;;;;;3.48;71.41;100571.03;4863609;28;101649;-90
2022/11/29 05:30:14;;;;;;;30.17;19.27;;;;;;;3.34;71.67;100551.16;4852478;28;101117;-91
2022/11/29 05:32:43;;;;;;;30.00;18.33;;;;;;;3.44;71.73;100574.53;4867301;28;96733;-91
2022/11/29 05:35:20;;;;;;;33.13;19.73;;;;;;;3.29;71.99;100560.69;4884419;28;96800;-90
2022/11/29 05:38:04;;;;;;;33.33;21.00;;;;;;;3.33;71.49;100548.56;4852861;28;101425;-90
2022/11/29 05:40:41;;;;;;;31.70;19.73;;;;;;;3.38;71.52;100555.50;4856096;28;100323;-90
2022/11/29 05:43:10;;;;;;;30.47;19.87;;;;;;;3.49;71.55;100586.63;4860347;28;97370;-92
2022/11/29 05:45:42;;;;;;;34.73;21.40;;;;;;;3.47;71.70;100582.31;4859624;28;97195;-90
2022/11/29 05:48:14;;;;;;;34.57;20.60;;;;;;;3.45;71.68;100579.69;4853437;28;100112;-91
2022/11/29 05:50:41;;;;;;;;;;;;;;;3.45;71.86;100595.28;4854004;28;100420;-93
2022/11/29 05:53:20;;;;;;;30.20;18.40;;;;;;;3.53;71.74;100590.94;4862548;28;96788;-90
2022/11/29 05:56:04;;;;;;;31.73;19.23;;;;;;;3.46;71.51;100597.03;4882841;28;96974;-91
2022/11/29 05:59:04;;;;;;;32.87;19.90;;;;;;;3.40;72.00;100597.88;4848017;28;101432;-92
2022/11/29 06:01:41;;;;;;;32.00;19.27;;;;;;;3.46;71.99;100601.31;4809372;28;100302;-91
2022/11/29 06:04:23;;;;;;;30.00;19.53;;;;;;;3.47;71.86;100596.16;4872621;28;97074;-91
2022/11/29 06:06:57;;;;;;;30.60;18.67;;;;;;;3.43;71.81;100599.59;4856939;28;97056;-91
2022/11/29 06:09:27;;;;;;;31.57;19.70;;;;;;;3.45;71.96;100609.97;4875693;28;101402;-90
2022/11/29 06:12:14;;;;;;;31.60;19.67;;;;;;;3.61;71.48;100604.78;4848828;28;100853;-89
2022/11/29 06:14:46;;;;;;;34.43;19.80;;;;;;;3.48;71.63;100613.44;4867893;28;96950;-91
2022/11/29 06:17:57;;;;;;;31.70;19.67;;;;;;;3.34;71.81;100597.84;4859419;28;97207;-91
2022/11/29 06:20:52;;;;;;;35.40;20.83;;;;;;;3.40;72.13;100608.25;4841848;28;101180;-92
2022/11/29 06:23:42;;;;;;;31.60;19.93;;;;;;;3.33;71.82;100598.72;4785486;29;97931;-93
2022/11/29 06:26:29;;;;;;;33.07;19.73;;;;;;;3.43;71.73;100622.94;4770717;29;97032;-89
2022/11/29 06:29:18;;;;;;;34.70;20.13;;;;;;;3.42;72.05;100622.97;4779384;29;97108;-90
2022/11/29 06:31:55;;;;;;;34.50;20.17;;;;;;;3.43;72.02;100630.72;4785867;29;100224;-88
2022/11/29 06:34:58;;;;;;;37.20;21.70;;;;;;;3.49;71.98;100629.88;4771155;29;101296;-88
2022/11/29 06:37:31;;;;;;;37.80;21.23;;;;;;;3.48;71.86;100631.59;4787904;29;97858;-87
2022/11/29 06:39:57;;;;;;;37.27;22.37;;;;;;;3.48;72.13;100630.75;4778707;29;97201;-85
2022/11/29 06:42:22;;;;;;;36.90;21.07;;;;;;;3.59;71.35;100626.41;4770360;29;101603;-88
2022/11/29 06:44:48;;;;;;;37.47;21.00;;;;;;;3.52;71.47;100635.06;4785407;29;100995;-88
2022/11/29 06:47:24;;;;;;;33.93;20.27;;;;;;;3.53;71.80;100640.25;4757751;29;97343;-86
2022/11/29 06:49:55;;;;;;;33.73;20.87;;;;;;;3.42;71.88;100616.03;4756730;29;96950;-87
2022/11/29 06:52:34;;;;;;;33.50;21.17;;;;;;;3.61;71.74;100641.13;4758334;29;101375;-88
2022/11/29 06:55:38;;;;;;;34.57;22.30;;;;;;;3.73;71.33;100640.25;4783967;29;101325;-85
2022/11/29 06:58:31;;;;;;;35.80;21.30;;;;;;;3.54;71.58;100641.13;4791301;29;96922;-93
2022/11/29 07:01:24;;;;;;;34.60;19.93;;;;;;;3.55;71.95;100646.34;4819939;28;97124;-89
2022/11/29 07:04:08;;;;;;;39.47;21.03;;;;;;;3.61;71.40;100643.72;4861022;28;101769;-92
2022/11/29 07:06:34;;;;;;;39.67;22.93;;;;;;;3.60;71.35;100641.13;4851729;28;101187;-90
2022/11/29 07:09:09;;;;;;;39.20;21.80;;;;;;;3.41;71.85;100609.13;4859810;28;96788;-90
2022/11/29 07:11:34;;;;;;;36.57;21.33;;;;;;;3.61;71.66;100648.06;4859320;28;97048;-91
2022/11/29 07:14:00;;;;;;;35.13;22.13;;;;;;;3.69;71.40;100648.03;4840076;28;101227;-92
2022/11/29 07:16:41;;;;;;;36.60;22.73;;;;;;;3.77;71.48;100643.72;4858049;28;100023;-93
2022/11/29 07:19:22;;;;;;;39.17;23.13;;;;;;;3.71;71.52;100644.56;4835169;28;96658;-91
2022/11/29 07:22:11;;;;;;;44.57;25.27;;;;;;;3.55;71.68;100625.56;4856302;28;97438;-91
2022/11/29 07:24:44;;;;;;;43.77;24.63;;;;;;;3.57;71.47;100631.59;4823254;28;101001;-90
2022/11/29 07:27:42;;;;;;;46.83;29.40;;;;;;;3.73;71.64;100647.19;4844681;28;100488;-92
2022/11/29 07:30:14;;;;;;;44.20;26.90;;;;;;;3.75;71.19;100637.63;4810593;28;97083;-91
2022/11/29 07:33:00;;;;;;;38.33;23.15;;;;;;;3.65;71.53;100628.16;4861121;28;97170;-91
2022/11/29 07:35:54;;;;;;;42.37;21.67;;;;;;;3.71;71.53;100644.56;4877136;28;101583;-92
2022/11/29 07:38:39;;;;;;;40.77;22.23;;;;;;;3.73;71.35;100642.84;4855593;28;98327;-91
2022/11/29 07:41:13;;;;;;;34.77;22.00;;;;;;;3.83;70.94;100654.09;4868673;28;96707;-92
2022/11/29 07:43:53;;;;;;;36.00;21.93;;;;;;;3.81;71.25;100659.28;4858638;28;98325;-96
2022/11/29 07:46:19;;;;;;;41.20;24.43;;;;;;;3.78;71.13;100658.41;4842425;28;101456;-94
2022/11/29 07:48:44;;;;;;;40.70;23.40;;;;;;;3.71;71.29;100660.16;4849201;28;99956;-89
2022/11/29 07:51:10;;;;;;;34.97;21.60;;;;;;;3.74;71.23;100661.88;4844045;28;97155;-89
2022/11/29 07:53:40;;;;;;;38.17;23.33;;;;;;;3.65;71.66;100636.78;4860823;28;97123;-93
2022/11/29 07:56:05;;;;;;;35.80;22.17;;;;;;;3.76;71.77;100657.56;4862766;28;98504;-92
2022/11/29 07:58:31;;;;;;;43.40;23.30;;;;;;;3.97;70.94;100667.06;4849043;28;100960;-92
2022/11/29 08:00:57;;;;;;;40.13;22.33;;;;;;;3.88;70.77;100657.56;4848246;28;97343;-94
2022/11/29 08:03:22;;;;;;;35.93;23.00;;;;;;;3.88;71.62;100660.16;4845072;28;97176;-93
2022/11/29 08:05:48;;;;;;;40.20;24.00;;;;;;;3.79;70.80;100642.84;4843097;28;101781;-94
2022/11/29 08:08:16;;;;;;;42.43;23.53;;;;;;;3.86;70.79;100647.16;4846444;28;101008;-95
2022/11/29 08:10:42;;;;;;;48.87;28.17;;;;;;;3.81;71.08;100622.94;4834288;29;96800;-92
2022/11/29 08:13:07;;;;;;;50.30;28.40;;;;;;;3.94;70.78;100644.56;4859231;28;97366;-93
2022/11/29 08:15:33;;;;;;;40.87;24.23;;;;;;;3.84;70.54;100635.06;4843320;28;100312;-96
2022/11/29 08:18:01;;;;;;;36.57;22.20;;;;;;;3.70;70.74;100624.69;4861081;28;98402;-96
2022/11/29 08:20:26;;;;;;;41.00;25.73;;;;;;;4.02;70.96;100675.72;4867121;28;96744;-93
2022/11/29 08:22:56;;;;;;;40.50;24.60;;;;;;;3.74;71.10;100636.78;4855267;28;96982;-93
2022/11/29 08:25:22;;;;;;;43.93;24.03;;;;;;;3.95;71.64;100667.06;4854189;28;101430;-93
2022/11/29 08:27:48;;;;;;;40.23;22.83;;;;;;;4.04;71.61;100676.56;4862672;28;101223;-93
2022/11/29 08:30:17;;;;;;;36.60;22.23;;;;;;;4.12;71.00;100682.63;4849833;28;96707;-94
2022/11/29 08:32:43;;;;;;;37.73;22.73;;;;;;;3.90;71.25;100647.16;4839894;28;97154;-92
2022/11/29 08:35:08;;;;;;;36.33;21.77;;;;;;;4.15;70.93;100687.81;4860882;28;101466;-91
2022/11/29 08:37:34;;;;;;;33.70;21.00;;;;;;;4.13;70.56;100689.56;4852224;28;98415;-92
2022/11/29 08:39:59;;;;;;;41.97;22.90;;;;;;;4.13;70.70;100683.47;4855285;28;96782;-92
2022/11/29 08:42:25;;;;;;;39.20;23.27;;;;;;;4.13;71.05;100691.28;4868504;28;96845;-93
2022/11/29 08:44:50;;;;;;;49.20;27.67;;;;;;;3.88;71.27;100646.31;4847701;28;97170;-92
2022/11/29 08:47:34;;;;;;;55.13;30.00;;;;;;;4.00;71.45;100669.66;4859271;28;98532;-93
2022/11/29 08:50:08;;;;;;;43.00;26.57;;;;;;;4.28;70.70;100688.66;4865075;28;96827;-89
2022/11/29 08:55:26;;;;;;;42.43;23.00;;;;;;;4.09;70.51;100672.22;4878744;28;99725;-89
2022/11/29 08:57:52;;;;;;;35.40;21.50;;;;;;;4.13;71.01;100683.47;4847435;28;102478;-86
2022/11/29 09:00:20;;;;;;;36.73;22.93;;;;;;;4.14;71.30;100687.81;4853479;28;96951;-88
2022/11/29 09:02:46;;;;;;;37.37;22.60;;;;;;;4.18;70.92;100687.78;4836275;28;97506;-88
2022/11/29 09:05:11;;;;;;;35.87;21.67;;;;;;;4.12;71.20;100680.00;4847162;28;101326;-88
2022/11/29 09:07:37;;;;;;;34.27;21.83;;;;;;;4.19;71.35;100693.84;4841402;28;100544;-85
2022/11/29 09:10:06;;;;;;;37.77;22.33;;;;;;;4.23;70.90;100691.25;4853597;28;97218;-88
2022/11/29 09:12:33;;;;;;;35.60;22.47;;;;;;;4.15;71.00;100672.22;4846773;28;96991;-87
2022/11/29 09:14:59;;;;;;;39.37;22.10;;;;;;;4.26;70.58;100700.78;4872588;28;101446;-86
2022/11/29 09:17:24;;;;;;;39.27;23.67;;;;;;;4.28;70.70;100697.31;4861166;28;101255;-87
2022/11/29 09:19:50;;;;;;;41.97;23.37;;;;;;;4.21;71.15;100689.53;4857454;28;98028;-89
2022/11/29 09:22:15;;;;;;;34.83;22.00;;;;;;;4.24;70.77;100698.19;4836354;28;97478;-87
2022/11/29 09:24:41;;;;;;;36.90;21.63;;;;;;;4.01;70.99;100656.66;4858869;28;101218;-88
2022/11/29 09:27:06;;;;;;;35.53;22.33;;;;;;;4.29;70.75;100695.56;4858631;28;98178;-87
2022/11/29 09:29:32;;;;;;;40.60;23.40;;;;;;;4.30;70.67;100684.31;4876865;28;97202;-88
2022/11/29 09:31:57;;;;;;;35.27;22.83;;;;;;;4.40;71.06;100698.16;4846494;28;97271;-87
2022/11/29 09:34:23;;;;;;;38.30;22.70;;;;;;;4.21;71.04;100660.94;4867893;28;98644;-87
2022/11/29 09:36:48;;;;;;;37.90;23.23;;;;;;;4.49;71.18;100698.13;4854793;28;102171;-87
2022/11/29 09:39:14;;;;;;;36.50;22.33;;;;;;;4.50;71.07;100699.84;4846509;28;96959;-87
2022/11/29 09:41:55;;;;;;;39.50;22.33;;;;;;;4.30;70.71;100682.59;4851464;28;96972;-87
2022/11/29 09:44:34;;;;;;;43.40;25.33;;;;;;;4.55;70.75;100700.72;4851679;28;99428;-89
2022/11/29 09:47:07;;;;;;;44.77;25.03;;;;;;;4.27;71.17;100664.38;4851496;28;100922;-89
2022/11/29 09:49:51;;;;;;;41.67;25.77;;;;;;;4.48;71.15;100701.56;4857378;28;97248;-88
2022/11/29 09:52:16;;;;;;;34.53;21.93;;;;;;;4.41;71.50;100695.53;4835091;28;96848;-88
2022/11/29 09:54:54;;;;;;;37.30;22.23;;;;;;;4.25;71.68;100676.53;4869608;28;100772;-88
2022/11/29 09:57:22;;;;;;;44.50;23.87;;;;;;;4.42;71.21;100696.41;4871522;28;97415;-88
2022/11/29 09:59:50;;;;;;;38.23;24.20;;;;;;;4.40;70.73;100679.97;4839531;28;97240;-87
2022/11/29 10:02:44;;;;;;;42.83;24.90;;;;;;;4.47;70.98;100692.06;4833159;28;97330;-88
2022/11/29 10:05:20;;;;;;;41.50;24.60;;;;;;;4.54;71.33;100693.78;4861926;28;101629;-87
2022/11/29 10:07:53;;;;;;;44.93;25.10;;;;;;;4.61;71.16;100695.47;4880496;28;100112;-89
2022/11/29 10:10:24;;;;;;;42.67;24.43;;;;;;;4.62;71.23;100705.00;4868294;28;97841;-89
2022/11/29 10:13:06;;;;;;;45.75;26.65;;;;;;;4.76;70.32;100684.16;4862837;28;96922;-92
2022/11/29 10:15:38;;;;;;;47.15;26.65;;;;;;;4.78;70.54;100700.63;4860852;28;101261;-87
2022/11/29 10:18:04;;;;;;;;;;;;;;;4.78;70.29;100705.81;4863758;28;100371;-88
2022/11/29 10:20:33;;;;;;;42.57;24.90;;;;;;;4.82;70.25;100686.72;4847798;28;97275;-84
2022/11/29 10:23:08;;;;;;;41.10;24.10;;;;;;;4.87;70.50;100702.31;4829075;28;97524;-90
2022/11/29 10:25:44;;;;;;;44.23;24.23;;;;;;;4.86;70.51;100701.47;4858502;28;101039;-90
2022/11/29 10:28:13;;;;;;;40.93;24.67;;;;;;;4.94;70.34;100704.00;4859168;28;99083;-89
2022/11/29 10:30:39;;;;;;;37.37;23.13;;;;;;;4.85;70.61;100693.66;4836577;28;97338;-88
2022/11/29 10:33:14;;;;;;;38.00;23.43;;;;;;;4.90;70.37;100702.31;4841821;29;96913;-88
2022/11/29 10:35:40;;;;;;;35.80;22.37;;;;;;;4.86;70.22;100684.97;4860750;28;98090;-82
2022/11/29 10:38:05;;;;;;;37.57;22.50;;;;;;;4.98;70.11;100701.38;4842084;28;101012;-81
2022/11/29 10:40:36;;;;;;;39.53;23.20;;;;;;;4.95;69.99;100706.63;4872818;28;97718;-85
2022/11/29 10:43:02;;;;;;;41.13;23.97;;;;;;;5.07;69.49;100699.63;4858083;28;97152;-85
2022/11/29 10:45:37;;;;;;;37.83;23.97;;;;;;;4.98;70.11;100703.13;4862012;28;98059;-84
2022/11/29 10:48:16;;;;;;;36.37;23.90;;;;;;;5.05;70.03;100690.94;4874862;28;98028;-85
2022/11/29 10:50:43;;;;;;;34.27;22.13;;;;;;;5.13;69.55;100692.63;4839231;28;97031;-85
2022/11/29 10:53:30;;;;;;;38.23;23.23;;;;;;;5.18;69.14;100698.69;4862150;28;96883;-85
2022/11/29 10:56:00;;;;;;;36.03;22.67;;;;;;;5.06;69.58;100685.75;4853316;28;101730;-85
2022/11/29 10:58:27;;;;;;;39.03;23.00;;;;;;;5.05;70.00;100696.16;4863293;28;101096;-84
2022/11/29 11:01:05;;;;;;;39.17;23.67;;;;;;;5.18;69.42;100690.03;4840993;28;97351;-86
2022/11/29 11:03:41;;;;;;;37.63;22.73;;;;;;;5.15;69.94;100692.63;4856345;28;97372;-86
2022/11/29 11:06:20;;;;;;;38.60;23.07;;;;;;;5.15;69.37;100669.22;4845551;28;101709;-85
2022/11/29 11:08:52;;;;;;;34.97;22.60;;;;;;;5.30;69.00;100670.84;4855456;28;101645;-84
2022/11/29 11:11:28;;;;;;;;;;;;;;;5.27;68.94;100696.91;4846140;28;97372;-85
2022/11/29 11:14:00;;;;;;;33.33;20.60;;;;;;;5.12;69.80;100675.31;4849412;28;96951;-85
2022/11/29 11:16:25;;;;;;;35.60;23.13;;;;;;;5.15;69.57;100664.88;4845363;28;97686;-82
2022/11/29 11:18:51;;;;;;;36.93;22.33;;;;;;;5.25;69.86;100676.06;4835216;28;101412;-83
2022/11/29 11:21:18;;;;;;;37.10;22.10;;;;;;;5.24;69.89;100660.50;4854475;28;97607;-84
2022/11/29 11:23:47;;;;;;;38.60;24.40;;;;;;;5.36;69.83;100683.81;4843820;28;96952;-83
2022/11/29 11:26:13;;;;;;;37.60;24.13;;;;;;;5.24;70.42;100682.16;4845794;28;98010;-83
2022/11/29 11:28:47;;;;;;;41.70;25.03;;;;;;;5.43;69.75;100686.34;4850353;28;101246;-83
2022/11/29 11:31:12;;;;;;;38.63;23.00;;;;;;;5.39;69.79;100691.59;4860548;28;96796;-83
2022/11/29 11:33:40;;;;;;;37.17;24.10;;;;;;;5.27;70.20;100682.16;4838738;28;97074;-83
2022/11/29 11:36:13;;;;;;;34.73;22.37;;;;;;;5.29;70.31;100687.31;4854487;28;101596;-84
2022/11/29 11:38:41;;;;;;;66.93;24.83;;;;;;;5.21;70.21;100663.97;4844078;28;101360;-85
2022/11/29 11:41:16;;;;;;;45.33;24.87;;;;;;;5.22;70.66;100681.31;4841135;28;96863;-85
2022/11/29 11:43:55;;;;;;;41.73;23.83;;;;;;;5.38;70.34;100688.16;4848962;28;98140;-85
2022/11/29 11:46:21;;;;;;;40.93;23.43;;;;;;;5.41;70.35;100698.53;4821037;28;101221;-85
2022/11/29 11:48:47;;;;;;;39.40;24.13;;;;;;;5.44;70.59;100689.84;4842218;28;100746;-84
2022/11/29 11:51:22;;;;;;;39.30;25.23;;;;;;;5.32;70.59;100674.28;4843205;28;96992;-84
2022/11/29 11:53:50;;;;;;;42.57;26.13;;;;;;;5.51;70.36;100698.47;4844116;28;97484;-85
2022/11/29 11:56:15;;;;;;;40.00;25.53;;;;;;;5.53;70.42;100696.72;4834119;28;101948;-85